createdAt,value
2018-07-09T00:00:19.640Z,99.90
2018-07-09T00:02:47.964Z,99.90
2018-07-09T00:05:16.245Z,99.90
2018-07-09T00:07:44.562Z,99.90
2018-07-09T00:10:13.436Z,99.90
2018-07-09T00:12:41.738Z,99.90
2018-07-09T00:15:10.073Z,99.90
2018-07-09T00:17:38.395Z,99.90
2018-07-09T00:20:06.713Z,99.90
2018-07-09T00:22:35.021Z,99.90
2018-07-09T00:25:03.332Z,99.90
2018-07-09T00:27:31.697Z,99.90
2018-07-09T00:30:00.034Z,99.90
2018-07-09T00:32:28.396Z,99.90
2018-07-09T00:34:56.726Z,99.90
2018-07-09T00:37:25.095Z,99.90
2018-07-09T00:39:53.466Z,99.90
2018-07-09T00:42:21.985Z,99.90
2018-07-09T00:44:50.333Z,99.90
2018-07-09T00:47:18.668Z,99.90
2018-07-09T00:49:47.028Z,99.90
2018-07-09T00:52:15.356Z,99.90
2018-07-09T00:54:43.736Z,99.90
2018-07-09T00:57:12.057Z,99.90
2018-07-09T00:59:46.967Z,99.90
2018-07-09T01:02:15.260Z,99.90
2018-07-09T01:04:43.576Z,99.90
2018-07-09T01:07:11.998Z,99.90
2018-07-09T01:09:40.303Z,99.90
2018-07-09T01:12:10.392Z,99.90
2018-07-09T01:14:39.312Z,99.90
2018-07-09T01:17:07.828Z,99.90
2018-07-09T01:19:36.144Z,99.90
2018-07-09T01:22:05.093Z,99.90
2018-07-09T01:24:33.405Z,99.90
2018-07-09T01:27:01.960Z,99.90
2018-07-09T01:29:30.288Z,99.90
2018-07-09T01:31:58.557Z,99.90
2018-07-09T01:34:26.867Z,99.90
2018-07-09T01:36:55.233Z,99.90
2018-07-09T01:39:23.531Z,99.90
2018-07-09T01:41:51.847Z,99.90
2018-07-09T01:44:20.149Z,99.90
2018-07-09T01:46:48.464Z,99.90
2018-07-09T01:49:16.788Z,99.90
2018-07-09T01:51:45.088Z,99.90
2018-07-09T01:54:13.649Z,99.90
2018-07-09T01:56:41.933Z,99.90
2018-07-09T01:59:10.264Z,99.90
2018-07-09T02:01:38.577Z,99.90
2018-07-09T02:04:06.965Z,99.90
2018-07-09T02:06:35.241Z,99.90
2018-07-09T02:09:05.348Z,99.90
2018-07-09T02:11:33.630Z,99.90
2018-07-09T02:14:01.925Z,99.90
2018-07-09T02:16:30.287Z,99.90
2018-07-09T02:18:58.616Z,99.90
2018-07-09T02:21:26.920Z,99.90
2018-07-09T02:23:55.494Z,99.90
2018-07-09T02:26:23.811Z,99.90
2018-07-09T02:28:52.192Z,99.90
2018-07-09T02:31:20.493Z,99.90
2018-07-09T02:33:48.852Z,99.90
2018-07-09T02:36:17.206Z,99.90
2018-07-09T02:38:45.536Z,99.90
2018-07-09T02:41:13.816Z,99.90
2018-07-09T02:43:42.132Z,99.90
2018-07-09T02:46:10.437Z,99.90
2018-07-09T02:48:38.766Z,99.90
2018-07-09T02:51:07.140Z,99.90
2018-07-09T02:53:35.455Z,99.90
2018-07-09T02:56:03.756Z,99.90
2018-07-09T02:58:32.041Z,99.90
2018-07-09T03:01:00.510Z,99.90
2018-07-09T03:03:30.169Z,99.90
2018-07-09T03:05:58.493Z,99.90
2018-07-09T03:08:26.809Z,99.90
2018-07-09T03:10:55.144Z,99.90
2018-07-09T03:13:23.477Z,99.90
2018-07-09T03:15:51.800Z,99.90
2018-07-09T03:18:20.149Z,99.90
2018-07-09T03:20:48.436Z,99.90
2018-07-09T03:25:44.736Z,99.90
2018-07-09T03:28:13.020Z,99.90
2018-07-09T03:30:41.326Z,99.90
2018-07-09T03:33:09.685Z,99.90
2018-07-09T03:35:37.980Z,99.90
2018-07-09T03:38:06.320Z,99.90
2018-07-09T03:40:34.632Z,99.90
2018-07-09T03:43:02.981Z,99.90
2018-07-09T03:45:31.281Z,99.90
2018-07-09T03:47:59.557Z,99.90
2018-07-09T03:50:27.872Z,99.90
2018-07-09T03:52:56.148Z,99.90
2018-07-09T03:55:24.469Z,99.90
2018-07-09T03:57:52.892Z,99.90
2018-07-09T04:00:21.233Z,99.90
2018-07-09T04:02:49.536Z,99.90
2018-07-09T04:05:17.828Z,99.90
2018-07-09T04:07:46.128Z,99.90
2018-07-09T04:10:14.436Z,99.90
2018-07-09T04:12:42.741Z,99.90
2018-07-09T04:15:11.150Z,99.90
2018-07-09T04:17:39.499Z,99.90
2018-07-09T04:20:07.880Z,99.90
2018-07-09T04:22:36.189Z,99.90
2018-07-09T04:25:04.573Z,99.90
2018-07-09T04:27:32.866Z,99.90
2018-07-09T04:30:01.172Z,99.90
2018-07-09T04:32:29.449Z,99.90
2018-07-09T04:34:57.773Z,99.90
2018-07-09T04:37:26.205Z,99.90
2018-07-09T04:39:54.624Z,99.90
2018-07-09T04:42:22.955Z,99.90
2018-07-09T04:44:51.258Z,99.90
2018-07-09T04:47:19.900Z,99.90
2018-07-09T04:49:48.192Z,99.90
2018-07-09T04:52:16.860Z,99.90
2018-07-09T04:54:45.438Z,99.90
2018-07-09T04:57:13.881Z,99.90
2018-07-09T04:59:42.248Z,99.90
2018-07-09T05:02:10.577Z,99.90
2018-07-09T05:04:39.036Z,99.90
2018-07-09T05:07:07.431Z,99.90
2018-07-09T05:09:35.724Z,99.90
2018-07-09T05:12:04.060Z,99.90
2018-07-09T05:14:32.348Z,99.90
2018-07-09T05:17:00.706Z,99.90
2018-07-09T05:19:29.016Z,99.90
2018-07-09T05:21:57.333Z,99.90
2018-07-09T05:24:25.617Z,99.90
2018-07-09T05:26:53.929Z,99.90
2018-07-09T05:29:22.205Z,99.90
2018-07-09T05:31:50.514Z,99.90
2018-07-09T05:34:18.819Z,99.90
2018-07-09T05:36:47.152Z,99.90
2018-07-09T05:39:15.445Z,99.90
2018-07-09T05:41:43.896Z,99.90
2018-07-09T05:44:12.212Z,99.90
2018-07-09T05:46:40.608Z,99.90
2018-07-09T05:49:08.972Z,99.90
2018-07-09T05:51:37.279Z,99.90
2018-07-09T05:54:05.669Z,99.90
2018-07-09T05:56:33.972Z,99.90
2018-07-09T05:59:02.340Z,99.90
2018-07-09T06:01:30.654Z,99.90
2018-07-09T06:03:58.993Z,99.90
2018-07-09T06:06:27.309Z,99.90
2018-07-09T06:08:55.592Z,99.90
2018-07-09T06:13:52.028Z,99.90
2018-07-09T06:16:20.342Z,99.90
2018-07-09T06:18:48.673Z,99.90
2018-07-09T06:21:17.008Z,99.90
2018-07-09T06:23:55.433Z,99.90
2018-07-09T06:26:30.019Z,99.90
2018-07-09T06:31:33.781Z,99.90
2018-07-09T06:34:04.263Z,99.90
2018-07-09T06:36:34.422Z,99.90
2018-07-09T06:39:08.637Z,99.90
2018-07-09T06:41:39.539Z,99.90
2018-07-09T06:44:12.257Z,99.90
2018-07-09T06:46:47.863Z,99.90
2018-07-09T06:49:21.365Z,99.90
2018-07-09T06:51:58.687Z,99.90
2018-07-09T06:54:29.933Z,99.90
2018-07-09T06:57:00.564Z,99.90
2018-07-09T06:59:30.648Z,99.90
2018-07-09T07:02:06.491Z,99.90
2018-07-09T07:04:37.316Z,99.90
2018-07-09T07:07:07.285Z,99.90
2018-07-09T07:09:38.892Z,99.90
2018-07-09T07:12:09.766Z,99.90
2018-07-09T07:14:42.435Z,99.90
2018-07-09T07:17:22.705Z,99.90
2018-07-09T07:19:54.437Z,99.90
2018-07-09T07:22:36.934Z,99.90
2018-07-09T07:25:19.677Z,99.90
2018-07-09T07:27:51.919Z,99.90
2018-07-09T07:30:26.248Z,99.90
2018-07-09T07:35:27.372Z,99.90
2018-07-09T07:37:55.815Z,99.90
2018-07-09T07:40:24.121Z,99.90
2018-07-09T07:42:52.449Z,99.90
2018-07-09T07:45:20.737Z,99.90
2018-07-09T07:47:49.068Z,99.90
2018-07-09T07:50:17.428Z,99.90
2018-07-09T07:52:45.699Z,99.90
2018-07-09T07:55:13.993Z,99.90
2018-07-09T07:57:42.300Z,99.90
2018-07-09T08:00:11.244Z,99.90
2018-07-09T08:02:39.840Z,99.90
2018-07-09T08:05:08.220Z,99.90
2018-07-09T08:07:36.777Z,99.90
2018-07-09T08:10:06.010Z,99.90
2018-07-09T08:15:02.750Z,99.90
2018-07-09T08:17:31.057Z,99.90
2018-07-09T08:22:27.396Z,99.90
2018-07-09T08:24:55.744Z,99.90
2018-07-09T08:27:24.009Z,99.90
2018-07-09T08:29:52.311Z,99.90
2018-07-09T08:32:20.596Z,99.90
2018-07-09T08:34:48.940Z,99.90
2018-07-09T08:37:17.249Z,99.90
2018-07-09T08:39:45.556Z,99.90
2018-07-09T08:42:13.853Z,99.90
2018-07-09T08:44:43.375Z,99.90
2018-07-09T08:47:11.953Z,99.90
2018-07-09T08:49:40.264Z,99.90
2018-07-09T08:52:08.548Z,97.70
2018-07-09T08:54:36.912Z,95.30
2018-07-09T08:57:10.830Z,94.10
2018-07-09T08:59:39.133Z,92.80
2018-07-09T09:02:07.484Z,90.80
2018-07-09T09:04:35.789Z,92.40
2018-07-09T09:07:04.067Z,91.90
2018-07-09T09:09:32.338Z,91.20
2018-07-09T09:12:00.646Z,92.50
2018-07-09T09:14:28.941Z,92.40
2018-07-09T09:16:57.232Z,92.90
2018-07-09T09:19:25.525Z,94.30
2018-07-09T09:21:53.837Z,95.00
2018-07-09T09:24:22.152Z,94.70
2018-07-09T09:26:50.472Z,95.30
2018-07-09T09:29:18.753Z,94.60
2018-07-09T09:31:47.037Z,96.70
2018-07-09T09:34:15.309Z,97.10
2018-07-09T09:36:43.612Z,96.60
2018-07-09T09:39:11.937Z,95.90
2018-07-09T09:41:40.367Z,95.00
2018-07-09T09:44:08.677Z,95.10
2018-07-09T09:46:37.056Z,93.80
2018-07-09T09:49:05.453Z,95.00
2018-07-09T09:51:33.772Z,95.50
2018-07-09T09:54:02.165Z,95.80
2018-07-09T09:56:30.485Z,97.30
2018-07-09T09:58:58.873Z,97.10
2018-07-09T10:01:27.189Z,95.50
2018-07-09T10:03:55.456Z,94.30
2018-07-09T10:06:23.768Z,94.80
2018-07-09T10:08:52.052Z,93.90
2018-07-09T10:11:20.369Z,93.00
2018-07-09T10:13:48.644Z,92.90
2018-07-09T10:16:16.920Z,92.80
2018-07-09T10:18:45.237Z,91.50
2018-07-09T10:21:13.518Z,91.30
2018-07-09T10:23:41.859Z,92.30
2018-07-09T10:26:10.149Z,90.30
2018-07-09T10:28:38.453Z,90.90
2018-07-09T10:31:06.808Z,86.90
2018-07-09T10:33:35.093Z,89.50
2018-07-09T10:36:03.390Z,87.10
2018-07-09T10:38:31.695Z,85.60
2018-07-09T10:41:00.013Z,80.40
2018-07-09T10:43:28.307Z,80.30
2018-07-09T10:45:56.617Z,76.70
2018-07-09T10:48:24.905Z,76.10
2018-07-09T10:50:53.257Z,76.90
2018-07-09T10:53:21.546Z,74.40
2018-07-09T10:55:49.824Z,72.40
2018-07-09T10:58:18.120Z,71.70
2018-07-09T11:00:46.472Z,73.60
2018-07-09T11:03:14.729Z,69.20
2018-07-09T11:05:43.092Z,68.10
2018-07-09T11:08:11.393Z,68.80
2018-07-09T11:10:39.736Z,68.70
2018-07-09T11:13:08.129Z,67.30
2018-07-09T11:15:36.481Z,68.50
2018-07-09T11:18:04.913Z,66.00
2018-07-09T11:20:33.204Z,66.70
2018-07-09T11:23:01.493Z,65.70
2018-07-09T11:25:29.788Z,64.00
2018-07-09T11:27:58.079Z,64.40
2018-07-09T11:30:26.401Z,65.20
2018-07-09T11:32:54.716Z,65.60
2018-07-09T11:35:23.011Z,69.00
2018-07-09T11:37:51.781Z,75.10
2018-07-09T11:40:20.074Z,73.00
2018-07-09T11:42:48.366Z,73.00
2018-07-09T11:45:16.699Z,69.50
2018-07-09T11:47:45.038Z,66.90
2018-07-09T11:50:13.382Z,65.70
2018-07-09T11:52:41.677Z,65.00
2018-07-09T11:55:09.992Z,64.60
2018-07-09T12:00:06.376Z,60.40
2018-07-09T12:02:34.672Z,59.30
2018-07-09T12:05:03.041Z,60.80
2018-07-09T12:07:31.325Z,58.10
2018-07-09T12:09:59.686Z,58.60
2018-07-09T12:12:27.967Z,58.70
2018-07-09T12:14:56.269Z,58.70
2018-07-09T12:17:24.561Z,57.80
2018-07-09T12:19:52.881Z,58.50
2018-07-09T12:22:21.163Z,58.10
2018-07-09T12:24:49.548Z,60.80
2018-07-09T12:27:17.828Z,62.70
2018-07-09T12:29:46.108Z,63.90
2018-07-09T12:32:14.391Z,60.80
2018-07-09T12:34:42.733Z,59.20
2018-07-09T12:37:11.233Z,57.80
2018-07-09T12:39:39.520Z,56.80
2018-07-09T12:42:07.885Z,51.90
2018-07-09T12:44:36.185Z,53.40
2018-07-09T12:47:04.784Z,52.00
2018-07-09T12:49:33.117Z,51.50
2018-07-09T12:52:01.394Z,52.00
2018-07-09T12:54:29.693Z,51.30
2018-07-09T12:56:58.013Z,52.20
2018-07-09T12:59:26.305Z,49.90
2018-07-09T13:01:54.597Z,47.50
2018-07-09T13:04:22.884Z,49.90
2018-07-09T13:06:52.077Z,48.50
2018-07-09T13:09:20.353Z,47.60
2018-07-09T13:11:48.669Z,46.80
2018-07-09T13:14:16.987Z,48.40
2018-07-09T13:16:45.314Z,49.20
2018-07-09T13:19:13.634Z,47.20
2018-07-09T13:21:41.961Z,49.80
2018-07-09T13:24:10.260Z,51.50
2018-07-09T13:26:38.589Z,49.90
2018-07-09T13:29:06.893Z,54.10
2018-07-09T13:31:35.217Z,54.50
2018-07-09T13:34:03.892Z,54.00
2018-07-09T13:36:32.220Z,54.10
2018-07-09T13:39:00.556Z,53.40
2018-07-09T13:41:28.866Z,54.40
2018-07-09T13:43:57.361Z,55.50
2018-07-09T13:46:25.785Z,53.90
2018-07-09T13:48:54.075Z,55.00
2018-07-09T13:51:22.437Z,54.60
2018-07-09T13:53:50.777Z,56.60
2018-07-09T13:56:19.172Z,57.60
2018-07-09T13:58:47.460Z,57.40
2018-07-09T14:01:15.753Z,56.00
2018-07-09T14:03:44.149Z,56.80
2018-07-09T14:06:12.445Z,57.20
2018-07-09T14:08:40.792Z,58.50
2018-07-09T14:11:09.089Z,57.90
2018-07-09T14:13:37.403Z,59.00
2018-07-09T14:16:05.738Z,59.00
2018-07-09T14:18:34.018Z,57.80
2018-07-09T14:21:02.292Z,59.90
2018-07-09T14:23:30.568Z,58.80
2018-07-09T14:25:58.860Z,58.30
2018-07-09T14:28:27.137Z,58.60
2018-07-09T14:30:55.433Z,60.30
2018-07-09T14:33:23.792Z,59.70
2018-07-09T14:35:52.096Z,58.00
2018-07-09T14:38:20.377Z,58.90
2018-07-09T14:40:48.649Z,59.40
2018-07-09T14:43:16.928Z,60.50
2018-07-09T14:45:45.209Z,61.80
2018-07-09T14:48:13.490Z,60.60
2018-07-09T14:50:41.798Z,64.20
2018-07-09T14:53:10.121Z,61.70
2018-07-09T14:55:38.428Z,64.20
2018-07-09T14:58:06.752Z,61.30
2018-07-09T15:00:35.068Z,63.50
2018-07-09T15:03:03.455Z,61.40
2018-07-09T15:05:31.740Z,63.80
2018-07-09T15:08:00.057Z,59.80
2018-07-09T15:10:28.349Z,62.10
2018-07-09T15:12:56.767Z,62.20
2018-07-09T15:15:25.081Z,63.30
2018-07-09T15:17:53.418Z,63.20
2018-07-09T15:20:21.757Z,65.00
2018-07-09T15:22:50.084Z,63.80
2018-07-09T15:25:18.399Z,64.70
2018-07-09T15:27:46.676Z,64.40
2018-07-09T15:30:15.041Z,65.40
2018-07-09T15:32:43.329Z,64.00
2018-07-09T15:35:11.624Z,65.80
2018-07-09T15:37:39.916Z,68.00
2018-07-09T15:40:08.269Z,67.80
2018-07-09T15:42:36.601Z,69.40
2018-07-09T15:45:05.204Z,69.20
2018-07-09T15:50:01.540Z,70.80
2018-07-09T15:52:29.880Z,71.20
2018-07-09T15:54:58.212Z,69.20
2018-07-09T15:57:26.515Z,69.30
2018-07-09T15:59:54.838Z,69.20
2018-07-09T16:02:23.137Z,69.00
2018-07-09T16:04:51.488Z,70.30
2018-07-09T16:07:19.776Z,70.80
2018-07-09T16:09:48.080Z,70.50
2018-07-09T16:12:16.363Z,71.30
2018-07-09T16:14:44.680Z,71.30
2018-07-09T16:17:12.973Z,72.30
2018-07-09T16:19:41.313Z,72.60
2018-07-09T16:22:09.692Z,72.40
2018-07-09T16:24:38.039Z,74.60
2018-07-09T16:27:06.399Z,71.60
2018-07-09T16:29:34.729Z,72.10
2018-07-09T16:32:03.064Z,73.20
2018-07-09T16:34:31.377Z,72.60
2018-07-09T16:36:59.702Z,73.20
2018-07-09T16:39:28.021Z,71.70
2018-07-09T16:41:56.312Z,72.10
2018-07-09T16:44:24.613Z,73.90
2018-07-09T16:46:53.007Z,70.70
2018-07-09T16:49:21.211Z,71.10
2018-07-09T16:51:49.516Z,71.90
2018-07-09T16:54:17.861Z,70.60
2018-07-09T16:56:46.172Z,69.20
2018-07-09T16:59:14.472Z,71.10
2018-07-09T17:01:42.797Z,69.90
2018-07-09T17:04:11.109Z,70.80
2018-07-09T17:06:39.427Z,71.90
2018-07-09T17:09:07.745Z,72.00
2018-07-09T17:11:36.165Z,72.70
2018-07-09T17:14:04.522Z,70.80
2018-07-09T17:16:32.869Z,70.90
2018-07-09T17:19:01.171Z,72.30
2018-07-09T17:21:29.507Z,71.40
2018-07-09T17:23:57.793Z,72.40
2018-07-09T17:26:26.199Z,71.90
2018-07-09T17:28:54.447Z,73.50
2018-07-09T17:31:25.309Z,74.00
2018-07-09T17:33:53.762Z,76.20
2018-07-09T17:36:22.075Z,76.40
2018-07-09T17:38:50.463Z,76.30
2018-07-09T17:41:18.697Z,77.60
2018-07-09T17:43:47.009Z,77.60
2018-07-09T17:46:15.389Z,78.30
2018-07-09T17:48:43.693Z,78.00
2018-07-09T17:51:11.996Z,80.70
2018-07-09T17:53:40.335Z,81.30
2018-07-09T17:56:08.670Z,76.30
2018-07-09T17:58:36.960Z,76.10
2018-07-09T18:01:05.323Z,77.80
2018-07-09T18:03:33.645Z,77.40
2018-07-09T18:06:01.944Z,76.20
2018-07-09T18:10:58.485Z,78.30
2018-07-09T18:13:26.795Z,79.50
2018-07-09T18:15:55.105Z,79.90
2018-07-09T18:18:23.380Z,80.40
2018-07-09T18:20:51.696Z,79.10
2018-07-09T18:23:20.069Z,79.60
2018-07-09T18:25:48.477Z,80.10
2018-07-09T18:28:16.909Z,80.20
2018-07-09T18:30:45.284Z,82.30
2018-07-09T18:33:13.604Z,80.70
2018-07-09T18:35:42.133Z,82.40
2018-07-09T18:38:10.220Z,83.00
2018-07-09T18:40:38.612Z,83.00
2018-07-09T18:43:06.961Z,84.50
2018-07-09T18:45:35.290Z,84.90
2018-07-09T18:48:03.618Z,85.30
2018-07-09T18:50:31.897Z,87.10
2018-07-09T18:53:00.200Z,86.50
2018-07-09T18:55:28.507Z,88.40
2018-07-09T18:57:56.830Z,89.00
2018-07-09T19:00:25.131Z,88.80
2018-07-09T19:02:53.454Z,89.60
2018-07-09T19:06:30.021Z,89.60
2018-07-09T19:08:58.615Z,90.50
2018-07-09T19:11:26.937Z,91.20
2018-07-09T19:13:55.265Z,92.20
2018-07-09T19:16:23.608Z,95.10
2018-07-09T19:19:03.166Z,94.10
2018-07-09T19:21:42.840Z,96.10
2018-07-09T19:24:11.527Z,97.30
2018-07-09T19:26:39.425Z,99.00
2018-07-09T19:29:06.668Z,99.90
2018-07-09T19:31:33.940Z,99.90
2018-07-09T19:34:01.212Z,99.90
2018-07-09T19:36:28.481Z,99.90
2018-07-09T19:38:55.739Z,99.90
2018-07-09T19:41:22.979Z,99.90
2018-07-09T19:43:50.245Z,99.90
2018-07-09T19:46:17.543Z,99.90
2018-07-09T19:48:44.807Z,99.90
2018-07-09T19:51:12.058Z,99.90
2018-07-09T19:53:39.311Z,99.90
2018-07-09T19:56:06.595Z,99.90
2018-07-09T19:58:33.851Z,99.90
2018-07-09T20:01:01.081Z,99.90
2018-07-09T20:03:28.351Z,99.90
2018-07-09T20:05:55.588Z,99.90
2018-07-09T20:08:27.074Z,99.90
2018-07-09T20:10:59.551Z,99.90
2018-07-09T20:13:35.913Z,99.90
2018-07-09T20:16:08.666Z,99.90
2018-07-09T20:18:35.924Z,99.90
2018-07-09T20:21:03.174Z,99.90
2018-07-09T20:23:30.449Z,99.90
2018-07-09T20:26:01.541Z,99.90
2018-07-09T20:28:28.800Z,99.90
2018-07-09T20:30:56.149Z,99.90
2018-07-09T20:33:23.420Z,99.90
2018-07-09T20:35:50.714Z,99.90
2018-07-09T20:38:18.012Z,99.90
2018-07-09T20:40:45.259Z,99.90
2018-07-09T20:43:12.517Z,99.90
2018-07-09T20:45:39.783Z,99.90
2018-07-09T20:48:07.033Z,99.90
2018-07-09T20:50:34.277Z,99.90
2018-07-09T20:53:01.541Z,99.90
2018-07-09T20:55:28.841Z,99.90
2018-07-09T20:57:56.105Z,99.90
2018-07-09T21:00:23.350Z,99.90
2018-07-09T21:02:50.589Z,99.90
2018-07-09T21:05:17.857Z,99.90
2018-07-09T21:07:45.887Z,99.90
2018-07-09T21:10:14.294Z,99.90
2018-07-09T21:12:54.123Z,99.90
2018-07-09T21:15:23.087Z,99.90
2018-07-09T21:17:51.836Z,99.90
2018-07-09T21:20:20.528Z,99.90
2018-07-09T21:22:48.927Z,99.90
2018-07-09T21:25:17.398Z,99.90
2018-07-09T21:27:45.193Z,99.90
2018-07-09T21:30:13.179Z,99.90
2018-07-09T21:32:40.935Z,99.90
2018-07-09T21:35:08.642Z,99.90
2018-07-09T21:37:37.709Z,99.90
2018-07-09T21:40:05.283Z,99.90
2018-07-09T21:42:33.394Z,99.90
2018-07-09T21:45:01.164Z,99.90
2018-07-09T21:47:29.045Z,99.90
2018-07-09T21:49:57.124Z,99.90
2018-07-09T21:52:24.940Z,99.90
2018-07-09T21:54:52.233Z,99.90
2018-07-09T21:57:19.476Z,99.90
2018-07-09T21:59:46.734Z,99.90
2018-07-09T22:02:13.986Z,99.90
2018-07-09T22:04:41.243Z,99.90
2018-07-09T22:07:08.491Z,99.90
2018-07-09T22:09:35.753Z,99.90
2018-07-09T22:12:03.004Z,99.90
2018-07-09T22:14:30.308Z,99.90
2018-07-09T22:16:57.557Z,99.90
2018-07-09T22:19:24.825Z,99.90
2018-07-09T22:21:52.068Z,99.90
2018-07-09T22:24:19.319Z,99.90
2018-07-09T22:26:46.561Z,99.90
2018-07-09T22:29:13.824Z,99.90
2018-07-09T22:31:42.132Z,99.90
2018-07-09T22:34:10.429Z,99.90
2018-07-09T22:36:38.728Z,99.90
2018-07-09T22:39:07.025Z,99.90
2018-07-09T22:44:15.506Z,99.90
2018-07-09T22:46:43.823Z,99.90
2018-07-09T22:49:12.197Z,99.90
2018-07-09T22:51:40.512Z,99.90
2018-07-09T22:54:08.791Z,99.90
2018-07-09T22:56:37.117Z,99.90
2018-07-09T22:59:05.422Z,99.90
2018-07-09T23:01:35.717Z,99.90
2018-07-09T23:04:04.129Z,99.90
2018-07-09T23:06:32.432Z,99.90
2018-07-09T23:09:12.026Z,99.90
2018-07-09T23:14:57.718Z,99.90
2018-07-09T23:17:37.413Z,99.90
2018-07-09T23:22:14.054Z,99.90
2018-07-09T23:24:41.328Z,99.90
2018-07-09T23:29:36.129Z,99.90
2018-07-09T23:32:03.433Z,99.90
2018-07-09T23:34:30.704Z,99.90
2018-07-09T23:36:57.977Z,99.90
2018-07-09T23:39:25.238Z,99.90
2018-07-09T23:41:52.497Z,99.90
2018-07-09T23:44:19.732Z,99.90
2018-07-09T23:46:47.025Z,99.90
2018-07-09T23:49:14.255Z,99.90
2018-07-09T23:51:41.532Z,99.90
2018-07-09T23:54:08.787Z,99.90
2018-07-09T23:56:54.249Z,99.90
2018-07-09T23:59:33.933Z,99.90
